Time;durP1;ratioP1;P1;durP2;ratioP2;P2;SDS_P1;SDS_P2;PMS_P1;PMS_P2;Temp;Humidity;BMP_temperature;BMP_pressure;BME280_temperature;BME280_humidity;BME280_pressure;Samples;Min_cycle;Max_cycle;Signal;HPM_P1;HPM_P2
2021/04/26 00:01:14;;;;;;;23.13;21.83;;;;;;;;;;5075770;28;20190;-90
2021/04/26 00:03:41;;;;;;;21.95;20.75;;;;;;;;;;5075991;28;20243;-90
2021/04/26 00:06:08;;;;;;;21.15;20.00;;;;;;;;;;5075497;28;20706;-90
2021/04/26 00:08:35;;;;;;;21.75;20.50;;;;;;;;;;5076125;28;20326;-89
2021/04/26 00:11:02;;;;;;;21.95;20.63;;;;;;;;;;5075731;28;20269;-89
2021/04/26 00:13:30;;;;;;;21.52;20.33;;;;;;;;;;5075750;28;20190;-89
2021/04/26 00:15:57;;;;;;;22.27;20.80;;;;;;;;;;5075639;28;20646;-90
2021/04/26 00:18:24;;;;;;;23.00;21.60;;;;;;;;;;5075246;28;20205;-89
2021/04/26 00:20:51;;;;;;;21.70;20.60;;;;;;;;;;5076517;28;20189;-90
2021/04/26 00:23:18;;;;;;;21.60;20.40;;;;;;;;;;5074308;28;20237;-89
2021/04/26 00:25:45;;;;;;;23.05;21.15;;;;;;;;;;5074426;28;20201;-90
2021/04/26 00:28:12;;;;;;;22.58;21.27;;;;;;;;;;5075163;28;20226;-90
2021/04/26 00:30:40;;;;;;;22.30;21.10;;;;;;;;;;5076352;28;20188;-89
2021/04/26 00:33:07;;;;;;;21.85;20.60;;;;;;;;;;5076640;28;20206;-90
2021/04/26 00:35:33;;;;;;;21.60;20.40;;;;;;;;;;5076638;28;20201;-90
2021/04/26 00:38:00;;;;;;;22.60;21.30;;;;;;;;;;5075238;28;20193;-90
2021/04/26 00:40:27;;;;;;;23.05;21.75;;;;;;;;;;5074880;28;20198;-89
2021/04/26 00:42:54;;;;;;;23.48;22.00;;;;;;;;;;5075186;28;20185;-89
2021/04/26 00:45:22;;;;;;;23.27;21.75;;;;;;;;;;5075237;28;20194;-89
2021/04/26 00:47:50;;;;;;;21.90;20.63;;;;;;;;;;5074974;28;20217;-89
2021/04/26 00:50:18;;;;;;;22.42;20.60;;;;;;;;;;5075123;28;20243;-90
2021/04/26 00:52:45;;;;;;;21.60;20.40;;;;;;;;;;5074963;28;20184;-89
2021/04/26 00:55:12;;;;;;;21.95;20.65;;;;;;;;;;5074574;28;20195;-89
2021/04/26 00:57:39;;;;;;;21.60;20.40;;;;;;;;;;5074845;28;20243;-89
2021/04/26 01:00:07;;;;;;;22.85;21.05;;;;;;;;;;5074909;28;20189;-90
2021/04/26 01:02:34;;;;;;;21.75;20.55;;;;;;;;;;5073564;28;20204;-90
2021/04/26 01:05:02;;;;;;;21.15;19.95;;;;;;;;;;5074493;28;20193;-89
2021/04/26 01:07:30;;;;;;;22.05;20.75;;;;;;;;;;5075170;28;20217;-89
2021/04/26 01:09:57;;;;;;;22.30;21.17;;;;;;;;;;5074686;28;20194;-89
2021/04/26 01:12:30;;;;;;;21.83;20.63;;;;;;;;;;5074103;28;20209;-90
2021/04/26 01:15:02;;;;;;;21.85;20.65;;;;;;;;;;5074558;28;20220;-89
2021/04/26 01:17:31;;;;;;;22.95;20.95;;;;;;;;;;5073905;28;20209;-90
2021/04/26 01:20:37;;;;;;;22.20;20.90;;;;;;;;;;5074310;28;20198;-89
2021/04/26 01:23:24;;;;;;;22.23;20.85;;;;;;;;;;5074170;28;20212;-90
2021/04/26 01:25:52;;;;;;;22.20;20.70;;;;;;;;;;5073360;28;20646;-89
2021/04/26 01:28:25;;;;;;;21.58;20.48;;;;;;;;;;5074497;28;20216;-90
2021/04/26 01:30:55;;;;;;;24.23;22.27;;;;;;;;;;5074557;28;20279;-89
2021/04/26 01:33:24;;;;;;;22.55;21.15;;;;;;;;;;5074661;28;20558;-89
2021/04/26 01:35:51;;;;;;;21.95;20.75;;;;;;;;;;5074380;28;20190;-89
2021/04/26 01:38:19;;;;;;;22.08;20.88;;;;;;;;;;5074149;28;20193;-89
2021/04/26 01:40:47;;;;;;;22.05;20.85;;;;;;;;;;5074324;28;20541;-90
2021/04/26 01:43:16;;;;;;;21.75;20.55;;;;;;;;;;5074172;28;20185;-89
2021/04/26 01:45:44;;;;;;;22.10;20.90;;;;;;;;;;5074132;28;20216;-90
2021/04/26 01:48:11;;;;;;;23.05;21.75;;;;;;;;;;5073800;28;20230;-88
2021/04/26 01:50:39;;;;;;;21.73;20.55;;;;;;;;;;5073663;28;20187;-90
2021/04/26 01:53:06;;;;;;;22.45;21.25;;;;;;;;;;5074009;28;20643;-90
2021/04/26 01:55:34;;;;;;;21.77;20.65;;;;;;;;;;5074018;28;20248;-89
2021/04/26 01:58:01;;;;;;;22.33;21.13;;;;;;;;;;5074083;28;20191;-89
2021/04/26 02:00:30;;;;;;;22.38;21.08;;;;;;;;;;5074559;28;20191;-90
2021/04/26 02:02:57;;;;;;;21.98;20.67;;;;;;;;;;5074243;28;20197;-89
2021/04/26 02:05:25;;;;;;;21.73;20.45;;;;;;;;;;5074234;28;20653;-89
2021/04/26 02:07:53;;;;;;;22.65;21.05;;;;;;;;;;5073026;28;20226;-89
2021/04/26 02:10:21;;;;;;;21.90;20.60;;;;;;;;;;5073819;28;20190;-90
2021/04/26 02:12:49;;;;;;;21.50;20.20;;;;;;;;;;5073778;28;20194;-89
2021/04/26 02:15:18;;;;;;;22.77;21.48;;;;;;;;;;5073905;28;20231;-89
2021/04/26 02:17:44;;;;;;;22.08;20.77;;;;;;;;;;5074363;28;20190;-90
2021/04/26 02:20:12;;;;;;;22.15;20.95;;;;;;;;;;5074071;28;20190;-89
2021/04/26 02:22:39;;;;;;;21.70;20.48;;;;;;;;;;5074167;28;20246;-89
2021/04/26 02:25:11;;;;;;;22.17;20.88;;;;;;;;;;5077373;28;20636;-89
2021/04/26 02:27:38;;;;;;;22.08;20.77;;;;;;;;;;5077452;28;20221;-89
2021/04/26 02:30:05;;;;;;;21.58;20.27;;;;;;;;;;5077728;28;20200;-89
2021/04/26 02:32:35;;;;;;;22.35;20.85;;;;;;;;;;5076701;28;20247;-89
2021/04/26 02:35:02;;;;;;;21.88;20.77;;;;;;;;;;5077527;28;20185;-89
2021/04/26 02:37:33;;;;;;;21.60;20.25;;;;;;;;;;5077424;28;20216;-90
2021/04/26 02:40:03;;;;;;;20.98;19.98;;;;;;;;;;5076570;28;20194;-90
2021/04/26 02:42:33;;;;;;;22.17;20.77;;;;;;;;;;5077424;28;20200;-90
2021/04/26 02:45:00;;;;;;;21.35;20.15;;;;;;;;;;5077558;28;20196;-90
2021/04/26 02:47:28;;;;;;;21.75;20.52;;;;;;;;;;5077353;28;20217;-89
2021/04/26 02:49:55;;;;;;;21.70;20.52;;;;;;;;;;5077281;28;20215;-89
2021/04/26 02:52:22;;;;;;;21.30;20.20;;;;;;;;;;5077454;28;20540;-89
2021/04/26 02:54:50;;;;;;;21.38;20.23;;;;;;;;;;5076084;28;20188;-89
2021/04/26 02:57:17;;;;;;;21.70;20.25;;;;;;;;;;5077508;28;20221;-90
2021/04/26 02:59:45;;;;;;;21.05;19.70;;;;;;;;;;5077210;28;20186;-89
2021/04/26 03:02:13;;;;;;;20.48;19.27;;;;;;;;;;5076788;28;20215;-90
2021/04/26 03:04:41;;;;;;;20.77;19.58;;;;;;;;;;5076738;28;20194;-89
2021/04/26 03:07:09;;;;;;;19.85;18.83;;;;;;;;;;5076677;28;20240;-90
2021/04/26 03:09:36;;;;;;;20.65;19.45;;;;;;;;;;5077564;28;20212;-90
2021/04/26 03:12:04;;;;;;;21.13;19.95;;;;;;;;;;5077068;28;20218;-89
2021/04/26 03:14:31;;;;;;;23.80;21.80;;;;;;;;;;5076779;28;20188;-89
2021/04/26 03:16:59;;;;;;;21.02;19.92;;;;;;;;;;5076641;28;20203;-89
2021/04/26 03:19:26;;;;;;;20.70;19.60;;;;;;;;;;5076726;28;20196;-90
2021/04/26 03:21:54;;;;;;;21.30;20.10;;;;;;;;;;5077281;28;20506;-89
2021/04/26 03:24:21;;;;;;;20.55;19.45;;;;;;;;;;5076271;28;20237;-89
2021/04/26 03:26:49;;;;;;;21.70;20.25;;;;;;;;;;5076228;28;20213;-90
2021/04/26 03:29:18;;;;;;;22.08;20.48;;;;;;;;;;5076607;28;20557;-89
2021/04/26 03:31:45;;;;;;;21.25;19.95;;;;;;;;;;5076492;28;20246;-90
2021/04/26 03:34:13;;;;;;;21.35;20.15;;;;;;;;;;5076126;28;20204;-90
2021/04/26 03:36:41;;;;;;;21.55;20.10;;;;;;;;;;5076912;28;20192;-89
2021/04/26 03:39:09;;;;;;;21.45;19.95;;;;;;;;;;5076380;28;20193;-90
2021/04/26 03:41:36;;;;;;;21.63;20.23;;;;;;;;;;5076232;28;20216;-89
2021/04/26 03:44:04;;;;;;;21.45;20.05;;;;;;;;;;5076410;28;20598;-90
2021/04/26 03:46:30;;;;;;;21.58;19.95;;;;;;;;;;5076173;28;20240;-89
2021/04/26 03:48:57;;;;;;;21.90;20.60;;;;;;;;;;5075882;28;20189;-90
2021/04/26 03:51:25;;;;;;;21.10;19.90;;;;;;;;;;5076401;28;20197;-89
2021/04/26 03:53:52;;;;;;;21.67;20.38;;;;;;;;;;5076035;28;20200;-90
2021/04/26 03:56:19;;;;;;;20.45;19.45;;;;;;;;;;5075624;28;20224;-90
2021/04/26 03:58:46;;;;;;;21.52;20.23;;;;;;;;;;5076175;28;20196;-90
2021/04/26 04:01:13;;;;;;;21.17;19.77;;;;;;;;;;5074891;28;20205;-89
2021/04/26 04:03:40;;;;;;;21.35;19.88;;;;;;;;;;5075577;28;20209;-89
2021/04/26 04:06:07;;;;;;;20.23;19.13;;;;;;;;;;5075822;28;20544;-90
2021/04/26 04:08:35;;;;;;;20.27;19.27;;;;;;;;;;5074715;28;20238;-90
2021/04/26 04:11:02;;;;;;;21.00;19.70;;;;;;;;;;5075443;28;20188;-90
2021/04/26 04:13:29;;;;;;;21.02;19.92;;;;;;;;;;5075674;28;20188;-90
2021/04/26 04:15:56;;;;;;;20.73;19.55;;;;;;;;;;5074286;28;20204;-90
2021/04/26 04:18:23;;;;;;;20.58;19.48;;;;;;;;;;5075677;28;20200;-90
2021/04/26 04:20:49;;;;;;;20.15;19.15;;;;;;;;;;5075622;28;20199;-90
2021/04/26 04:23:16;;;;;;;20.88;19.08;;;;;;;;;;5075257;28;20240;-89
2021/04/26 04:25:44;;;;;;;21.90;20.42;;;;;;;;;;5074984;28;20192;-82
2021/04/26 04:28:11;;;;;;;20.75;19.65;;;;;;;;;;5075131;28;20217;-82
2021/04/26 04:30:38;;;;;;;20.52;19.10;;;;;;;;;;5073885;28;20557;-84
2021/04/26 04:33:05;;;;;;;21.60;20.30;;;;;;;;;;5075058;28;20192;-89
2021/04/26 04:35:32;;;;;;;21.50;20.33;;;;;;;;;;5075164;28;20192;-89
2021/04/26 04:37:59;;;;;;;20.73;19.65;;;;;;;;;;5075057;28;20186;-82
2021/04/26 04:40:26;;;;;;;20.63;19.45;;;;;;;;;;5074741;28;20204;-82
2021/04/26 04:42:54;;;;;;;20.40;19.30;;;;;;;;;;5074945;28;20192;-82
2021/04/26 04:45:21;;;;;;;20.55;19.25;;;;;;;;;;5074466;28;20195;-82
2021/04/26 04:47:47;;;;;;;20.40;19.20;;;;;;;;;;5074273;28;20217;-82
2021/04/26 04:50:15;;;;;;;20.85;19.65;;;;;;;;;;5075081;28;20570;-82
2021/04/26 04:52:42;;;;;;;20.30;19.10;;;;;;;;;;5073558;28;20196;-81
2021/04/26 04:55:10;;;;;;;20.20;19.20;;;;;;;;;;5074732;28;20204;-82
2021/04/26 04:57:37;;;;;;;20.30;19.00;;;;;;;;;;5074380;28;20193;-82
2021/04/26 05:00:05;;;;;;;21.70;19.83;;;;;;;;;;5074583;28;20288;-82
2021/04/26 05:02:32;;;;;;;21.25;20.05;;;;;;;;;;5074247;28;20197;-82
2021/04/26 05:04:59;;;;;;;21.90;20.27;;;;;;;;;;5074314;28;20230;-82
2021/04/26 05:07:26;;;;;;;20.33;19.23;;;;;;;;;;5073185;28;20219;-83
2021/04/26 05:09:54;;;;;;;21.40;20.10;;;;;;;;;;5074546;28;20584;-83
2021/04/26 05:12:21;;;;;;;19.73;18.60;;;;;;;;;;5073506;28;20555;-82
2021/04/26 05:14:49;;;;;;;20.35;19.15;;;;;;;;;;5073201;28;20734;-82
2021/04/26 05:17:17;;;;;;;20.17;19.17;;;;;;;;;;5074395;28;20251;-82
2021/04/26 05:19:44;;;;;;;20.90;19.48;;;;;;;;;;5074424;28;20235;-82
2021/04/26 05:22:11;;;;;;;19.92;18.70;;;;;;;;;;5074391;28;20185;-82
2021/04/26 05:24:38;;;;;;;20.77;19.48;;;;;;;;;;5073962;28;20232;-82
2021/04/26 05:27:06;;;;;;;20.98;19.75;;;;;;;;;;5073856;28;20211;-82
2021/04/26 05:29:33;;;;;;;20.20;18.70;;;;;;;;;;5074302;28;20188;-82
2021/04/26 05:32:00;;;;;;;20.65;19.45;;;;;;;;;;5074028;28;20225;-82
2021/04/26 05:34:27;;;;;;;21.08;19.58;;;;;;;;;;5056479;28;20210;-82
2021/04/26 05:36:54;;;;;;;19.55;18.45;;;;;;;;;;5074256;28;20193;-82
2021/04/26 05:39:21;;;;;;;20.63;19.40;;;;;;;;;;5073940;28;20190;-81
2021/04/26 05:41:48;;;;;;;20.05;19.05;;;;;;;;;;5074079;28;20243;-81
2021/04/26 05:44:15;;;;;;;21.05;19.95;;;;;;;;;;5073671;28;20198;-81
2021/04/26 05:46:42;;;;;;;19.17;18.17;;;;;;;;;;5072838;28;20206;-82
2021/04/26 05:49:09;;;;;;;19.95;18.95;;;;;;;;;;5073745;28;20195;-82
2021/04/26 05:51:37;;;;;;;20.63;19.52;;;;;;;;;;5073932;28;20192;-82
2021/04/26 05:54:04;;;;;;;20.35;19.25;;;;;;;;;;5073863;28;20197;-82
2021/04/26 05:56:31;;;;;;;20.70;19.48;;;;;;;;;;5073526;28;20283;-82
2021/04/26 05:58:58;;;;;;;20.33;19.13;;;;;;;;;;5077957;28;20247;-82
2021/04/26 06:01:25;;;;;;;20.42;19.05;;;;;;;;;;5077525;28;20186;-79
2021/04/26 06:03:52;;;;;;;20.13;19.02;;;;;;;;;;5077497;28;20200;-82
2021/04/26 06:06:19;;;;;;;20.02;19.02;;;;;;;;;;5077913;28;20213;-81
2021/04/26 06:08:46;;;;;;;20.67;19.50;;;;;;;;;;5077847;28;20568;-83
2021/04/26 06:11:13;;;;;;;20.30;19.30;;;;;;;;;;5077664;28;20738;-83
2021/04/26 06:13:40;;;;;;;20.50;19.30;;;;;;;;;;5077448;28;20201;-82
2021/04/26 06:16:07;;;;;;;20.00;19.00;;;;;;;;;;5077565;28;20189;-83
2021/04/26 06:18:34;;;;;;;20.15;19.15;;;;;;;;;;5076873;28;20193;-83
2021/04/26 06:21:01;;;;;;;20.30;19.30;;;;;;;;;;5077712;28;20190;-82
2021/04/26 06:23:28;;;;;;;20.23;19.17;;;;;;;;;;5077416;28;20237;-83
2021/04/26 06:25:56;;;;;;;20.38;19.25;;;;;;;;;;5077618;28;20440;-82
2021/04/26 06:28:23;;;;;;;20.48;19.33;;;;;;;;;;5077355;28;20239;-81
2021/04/26 06:30:50;;;;;;;20.25;19.15;;;;;;;;;;5077238;28;20213;-83
2021/04/26 06:33:17;;;;;;;19.90;18.80;;;;;;;;;;5077275;28;20210;-82
2021/04/26 06:35:44;;;;;;;20.42;19.17;;;;;;;;;;5077746;28;20205;-82
2021/04/26 06:38:11;;;;;;;20.80;19.60;;;;;;;;;;5077538;28;20202;-82
2021/04/26 06:40:38;;;;;;;19.98;18.98;;;;;;;;;;5076907;28;20190;-82
2021/04/26 06:43:06;;;;;;;20.75;19.10;;;;;;;;;;5077391;28;20186;-82
2021/04/26 06:45:33;;;;;;;19.90;18.90;;;;;;;;;;5076953;28;20190;-82
2021/04/26 06:48:00;;;;;;;20.52;19.42;;;;;;;;;;5077170;28;20226;-80
2021/04/26 06:50:28;;;;;;;19.90;18.90;;;;;;;;;;5076969;28;20201;-82
2021/04/26 06:52:55;;;;;;;20.83;19.40;;;;;;;;;;5075885;28;20191;-81
2021/04/26 06:55:23;;;;;;;20.65;19.55;;;;;;;;;;5076581;28;20278;-81
2021/04/26 06:57:50;;;;;;;19.95;18.95;;;;;;;;;;5076303;28;20196;-81
2021/04/26 07:00:19;;;;;;;20.37;19.27;;;;;;;;;;5076241;28;20219;-81
2021/04/26 07:02:47;;;;;;;20.35;19.25;;;;;;;;;;5076749;28;20770;-82
2021/04/26 07:05:14;;;;;;;20.42;19.23;;;;;;;;;;5076925;28;20194;-83
2021/04/26 07:07:41;;;;;;;21.35;20.10;;;;;;;;;;5076546;28;20234;-82
2021/04/26 07:10:09;;;;;;;20.50;19.40;;;;;;;;;;5075882;28;20186;-82
2021/04/26 07:12:37;;;;;;;21.08;19.98;;;;;;;;;;5076122;28;20208;-82
2021/04/26 07:15:04;;;;;;;20.00;19.00;;;;;;;;;;5075238;28;20202;-83
2021/04/26 07:17:34;;;;;;;20.65;19.65;;;;;;;;;;5076674;28;20191;-81
2021/04/26 07:20:01;;;;;;;20.60;19.40;;;;;;;;;;5076245;28;20199;-81
2021/04/26 07:22:28;;;;;;;20.40;19.30;;;;;;;;;;5076626;28;20531;-82
2021/04/26 07:24:55;;;;;;;20.13;19.02;;;;;;;;;;5075967;28;20259;-82
2021/04/26 07:27:22;;;;;;;23.00;20.95;;;;;;;;;;5076342;28;20214;-80
2021/04/26 07:29:49;;;;;;;21.33;20.13;;;;;;;;;;5074466;28;20215;-85
2021/04/26 07:32:16;;;;;;;20.60;19.35;;;;;;;;;;5076992;28;20191;-81
2021/04/26 07:34:44;;;;;;;20.30;19.30;;;;;;;;;;5074889;28;20202;-80
2021/04/26 07:37:11;;;;;;;21.00;19.90;;;;;;;;;;5076130;28;20256;-80
2021/04/26 07:39:38;;;;;;;21.43;20.30;;;;;;;;;;5076045;28;20201;-80
2021/04/26 07:42:05;;;;;;;21.27;19.98;;;;;;;;;;5076130;28;20460;-80
2021/04/26 07:44:32;;;;;;;21.42;20.33;;;;;;;;;;5076076;28;20628;-81
2021/04/26 07:46:59;;;;;;;21.10;20.00;;;;;;;;;;5074442;28;20192;-82
2021/04/26 07:49:26;;;;;;;21.35;20.27;;;;;;;;;;5076182;28;20192;-80
2021/04/26 07:51:54;;;;;;;21.70;20.48;;;;;;;;;;5075766;28;20636;-79
2021/04/26 07:54:21;;;;;;;22.83;21.53;;;;;;;;;;5075662;28;20190;-80
2021/04/26 07:56:48;;;;;;;21.58;20.23;;;;;;;;;;5075415;28;20523;-80
2021/04/26 07:59:15;;;;;;;21.48;20.25;;;;;;;;;;5075464;28;20205;-80
2021/04/26 08:01:42;;;;;;;21.35;20.15;;;;;;;;;;5075442;28;20187;-84
2021/04/26 08:04:09;;;;;;;21.92;20.55;;;;;;;;;;5075675;28;20194;-84
2021/04/26 08:06:36;;;;;;;21.80;20.60;;;;;;;;;;5075155;28;20187;-78
2021/04/26 08:09:04;;;;;;;21.02;19.83;;;;;;;;;;5075152;28;20218;-85
2021/04/26 08:11:31;;;;;;;20.60;19.45;;;;;;;;;;5075549;28;20188;-85
2021/04/26 08:13:58;;;;;;;20.58;19.27;;;;;;;;;;5075457;28;20210;-85
2021/04/26 08:16:25;;;;;;;20.65;19.55;;;;;;;;;;5075851;28;20197;-84
2021/04/26 08:18:52;;;;;;;20.70;19.50;;;;;;;;;;5075495;28;20203;-85
2021/04/26 08:21:19;;;;;;;21.60;20.50;;;;;;;;;;5075562;28;20428;-85
2021/04/26 08:23:47;;;;;;;21.83;20.27;;;;;;;;;;5075238;28;20514;-85
2021/04/26 08:26:14;;;;;;;21.93;20.63;;;;;;;;;;5075274;28;20442;-83
2021/04/26 08:28:41;;;;;;;22.30;20.70;;;;;;;;;;5074914;28;20485;-84
2021/04/26 08:31:08;;;;;;;20.80;19.50;;;;;;;;;;5075349;28;20910;-83
2021/04/26 08:33:35;;;;;;;21.63;20.43;;;;;;;;;;5074998;28;20468;-83
2021/04/26 08:36:02;;;;;;;21.23;20.03;;;;;;;;;;5075074;28;20768;-83
2021/04/26 08:38:29;;;;;;;21.80;20.60;;;;;;;;;;5075221;28;20778;-82
2021/04/26 08:40:56;;;;;;;22.40;20.90;;;;;;;;;;5074964;28;20452;-83
2021/04/26 08:43:24;;;;;;;21.37;20.13;;;;;;;;;;5074713;28;20692;-82
2021/04/26 08:45:51;;;;;;;21.57;20.27;;;;;;;;;;5073701;28;20429;-82
2021/04/26 08:48:19;;;;;;;21.98;20.77;;;;;;;;;;5074371;28;20459;-84
2021/04/26 08:50:46;;;;;;;21.67;20.37;;;;;;;;;;5074404;28;20191;-82
2021/04/26 08:53:13;;;;;;;22.70;21.40;;;;;;;;;;5073124;28;20532;-78
2021/04/26 08:55:40;;;;;;;21.43;20.20;;;;;;;;;;5074576;28;20469;-90
2021/04/26 08:58:07;;;;;;;22.17;20.70;;;;;;;;;;5074655;28;20517;-90
2021/04/26 09:00:35;;;;;;;21.90;20.40;;;;;;;;;;5074538;28;20453;-89
2021/04/26 09:03:03;;;;;;;21.40;20.10;;;;;;;;;;5073167;28;20460;-89
2021/04/26 09:05:33;;;;;;;21.37;20.27;;;;;;;;;;5074484;28;20437;-90
2021/04/26 09:08:00;;;;;;;21.90;20.70;;;;;;;;;;5076978;28;20506;-91
2021/04/26 09:10:51;;;;;;;21.83;20.43;;;;;;;;;;5074945;28;20432;-90
2021/04/26 09:13:22;;;;;;;22.33;20.97;;;;;;;;;;5061435;28;20446;-90
2021/04/26 09:15:54;;;;;;;21.87;20.47;;;;;;;;;;5079463;28;20789;-83
2021/04/26 09:18:21;;;;;;;22.47;21.07;;;;;;;;;;5077023;28;20908;-88
2021/04/26 09:20:48;;;;;;;22.90;21.43;;;;;;;;;;5080084;28;20416;-92
2021/04/26 09:23:16;;;;;;;22.33;21.00;;;;;;;;;;5080220;28;20469;-92
2021/04/26 09:25:44;;;;;;;21.67;20.37;;;;;;;;;;5080793;28;20437;-92
2021/04/26 09:28:12;;;;;;;22.50;20.97;;;;;;;;;;5081539;28;20466;-92
2021/04/26 09:30:49;;;;;;;22.53;21.13;;;;;;;;;;5080513;28;20757;-87
2021/04/26 09:33:34;;;;;;;26.77;22.60;;;;;;;;;;5078686;28;20468;-91
2021/04/26 09:36:12;;;;;;;94.67;28.80;;;;;;;;;;5079750;28;20434;-90
2021/04/26 09:38:39;;;;;;;21.43;20.00;;;;;;;;;;5077775;28;20904;-81
2021/04/26 09:41:14;;;;;;;21.10;19.70;;;;;;;;;;5078406;28;20911;-92
2021/04/26 09:43:42;;;;;;;21.55;20.25;;;;;;;;;;5079330;28;20821;-90
2021/04/26 09:46:10;;;;;;;21.90;20.65;;;;;;;;;;5079684;28;20193;-91
2021/04/26 09:48:37;;;;;;;21.30;20.00;;;;;;;;;;5077772;28;20283;-92
2021/04/26 09:51:04;;;;;;;21.37;20.10;;;;;;;;;;5078345;28;20430;-92
2021/04/26 09:53:33;;;;;;;21.63;20.40;;;;;;;;;;5078265;28;20444;-92
2021/04/26 09:56:10;;;;;;;22.83;21.30;;;;;;;;;;5079514;28;20250;-91
2021/04/26 09:58:38;;;;;;;22.20;20.90;;;;;;;;;;5078182;28;20445;-90
2021/04/26 10:01:05;;;;;;;22.95;21.50;;;;;;;;;;5077137;28;20209;-89
2021/04/26 10:03:32;;;;;;;22.95;21.65;;;;;;;;;;5076227;28;20190;-90
2021/04/26 10:05:59;;;;;;;22.83;21.45;;;;;;;;;;5077928;28;20191;-89
2021/04/26 10:08:27;;;;;;;22.38;21.08;;;;;;;;;;5074568;28;20683;-90
2021/04/26 10:10:56;;;;;;;22.38;20.80;;;;;;;;;;5077913;28;20213;-90
2021/04/26 10:13:23;;;;;;;22.30;21.00;;;;;;;;;;5077628;28;20598;-91
2021/04/26 10:15:55;;;;;;;22.55;21.02;;;;;;;;;;5077047;28;20201;-90
2021/04/26 10:18:22;;;;;;;23.52;22.05;;;;;;;;;;5076939;28;20197;-89
2021/04/26 10:20:49;;;;;;;22.88;21.48;;;;;;;;;;5075308;28;20187;-89
2021/04/26 10:23:35;;;;;;;23.08;21.52;;;;;;;;;;5077565;28;20238;-90
2021/04/26 10:26:03;;;;;;;22.67;21.37;;;;;;;;;;5077165;28;20220;-90
2021/04/26 10:28:30;;;;;;;23.80;22.40;;;;;;;;;;5075984;28;20480;-90
2021/04/26 10:30:58;;;;;;;24.20;22.80;;;;;;;;;;5078548;28;20445;-92
2021/04/26 10:33:25;;;;;;;23.90;22.60;;;;;;;;;;5078756;28;20433;-91
2021/04/26 10:35:55;;;;;;;24.00;22.77;;;;;;;;;;5077372;28;20788;-86
2021/04/26 10:38:51;;;;;;;23.57;22.37;;;;;;;;;;5076573;28;20453;-91
2021/04/26 10:41:36;;;;;;;24.48;23.08;;;;;;;;;;5064781;28;20456;-86
2021/04/26 10:44:04;;;;;;;22.73;21.43;;;;;;;;;;5075770;28;20217;-87
2021/04/26 10:46:31;;;;;;;23.23;21.70;;;;;;;;;;5080555;28;20437;-88
2021/04/26 10:49:16;;;;;;;21.73;20.43;;;;;;;;;;5078480;28;20909;-88
2021/04/26 10:51:43;;;;;;;22.50;21.13;;;;;;;;;;5080136;28;20448;-91
2021/04/26 10:54:10;;;;;;;23.10;21.50;;;;;;;;;;5078506;28;20472;-86
2021/04/26 10:56:37;;;;;;;22.60;21.30;;;;;;;;;;5078443;28;20961;-88
2021/04/26 10:59:22;;;;;;;23.13;21.83;;;;;;;;;;5078587;28;20811;-89
2021/04/26 11:01:51;;;;;;;23.40;22.00;;;;;;;;;;5080155;28;20456;-89
2021/04/26 11:04:18;;;;;;;23.00;21.70;;;;;;;;;;5080499;28;20456;-91
2021/04/26 11:06:59;;;;;;;23.43;22.03;;;;;;;;;;5081814;28;20437;-91
2021/04/26 11:09:34;;;;;;;23.30;21.80;;;;;;;;;;5081416;28;20489;-92
2021/04/26 11:12:05;;;;;;;23.37;22.07;;;;;;;;;;5081318;28;20445;-91
2021/04/26 11:14:33;;;;;;;21.97;20.77;;;;;;;;;;5080586;28;20942;-91
2021/04/26 11:17:08;;;;;;;23.40;22.00;;;;;;;;;;5078082;28;20403;-80
2021/04/26 11:19:59;;;;;;;22.70;21.30;;;;;;;;;;5076986;28;20436;-83
2021/04/26 11:22:36;;;;;;;22.13;20.80;;;;;;;;;;5076310;28;20454;-90
2021/04/26 11:25:04;;;;;;;22.50;21.00;;;;;;;;;;5076226;28;20481;-89
2021/04/26 11:27:32;;;;;;;22.40;20.83;;;;;;;;;;5076368;28;20535;-90
2021/04/26 11:30:15;;;;;;;22.30;21.10;;;;;;;;;;5078380;28;20424;-90
2021/04/26 11:32:59;;;;;;;22.90;21.50;;;;;;;;;;5081591;28;21031;-89
2021/04/26 11:35:26;;;;;;;22.40;21.20;;;;;;;;;;5081602;28;20941;-90
2021/04/26 11:37:54;;;;;;;23.93;22.53;;;;;;;;;;5080038;28;20413;-91
2021/04/26 11:40:22;;;;;;;23.50;22.20;;;;;;;;;;5079954;28;20412;-90
2021/04/26 11:42:49;;;;;;;24.37;22.53;;;;;;;;;;5080056;28;20412;-88
2021/04/26 11:45:20;;;;;;;23.50;22.00;;;;;;;;;;5080274;28;20428;-90
2021/04/26 11:47:48;;;;;;;22.73;21.53;;;;;;;;;;5081288;28;20448;-86
2021/04/26 11:50:16;;;;;;;23.30;21.80;;;;;;;;;;5077721;28;20420;-87
2021/04/26 11:52:42;;;;;;;23.00;21.70;;;;;;;;;;5076837;28;20420;-87
2021/04/26 11:55:16;;;;;;;23.60;22.30;;;;;;;;;;5075829;28;20440;-85
2021/04/26 11:57:44;;;;;;;23.53;22.13;;;;;;;;;;5076730;28;20413;-85
2021/04/26 12:00:11;;;;;;;25.20;23.53;;;;;;;;;;5075428;28;20400;-85
2021/04/26 12:02:39;;;;;;;24.23;22.83;;;;;;;;;;5076470;28;20446;-85
2021/04/26 12:05:07;;;;;;;23.53;22.10;;;;;;;;;;5075415;28;20456;-84
2021/04/26 12:07:35;;;;;;;23.50;22.00;;;;;;;;;;5076963;28;20446;-86
2021/04/26 12:10:03;;;;;;;23.60;22.10;;;;;;;;;;5076964;28;20419;-85
2021/04/26 12:12:31;;;;;;;23.50;22.07;;;;;;;;;;5076200;28;20459;-85
2021/04/26 12:14:58;;;;;;;23.90;22.50;;;;;;;;;;5077310;28;20954;-86
2021/04/26 12:17:26;;;;;;;23.20;21.90;;;;;;;;;;5077155;28;20419;-85
2021/04/26 12:19:54;;;;;;;24.40;22.90;;;;;;;;;;5076125;28;20448;-87
2021/04/26 12:22:24;;;;;;;24.47;22.73;;;;;;;;;;5076089;28;20418;-84
2021/04/26 12:24:52;;;;;;;24.33;22.83;;;;;;;;;;5075354;28;20448;-80
2021/04/26 12:27:20;;;;;;;23.37;22.07;;;;;;;;;;5075370;28;20887;-79
2021/04/26 12:29:51;;;;;;;25.77;23.77;;;;;;;;;;5074829;28;20416;-87
2021/04/26 12:32:19;;;;;;;23.50;22.20;;;;;;;;;;5075452;28;20792;-80
2021/04/26 12:34:47;;;;;;;23.83;22.43;;;;;;;;;;5074386;28;20875;-80
2021/04/26 12:37:14;;;;;;;23.67;22.37;;;;;;;;;;5073419;28;20434;-79
2021/04/26 12:39:41;;;;;;;23.30;21.90;;;;;;;;;;5074482;28;20412;-78
2021/04/26 12:42:12;;;;;;;24.40;23.00;;;;;;;;;;5075122;28;20437;-77
2021/04/26 12:44:39;;;;;;;24.17;22.87;;;;;;;;;;5074552;28;20792;-78
2021/04/26 12:47:23;;;;;;;23.97;22.50;;;;;;;;;;5074078;28;20408;-79
2021/04/26 12:49:50;;;;;;;23.63;22.33;;;;;;;;;;5074326;28;20440;-77
2021/04/26 12:52:18;;;;;;;25.07;23.57;;;;;;;;;;5074393;28;20434;-78
2021/04/26 12:55:04;;;;;;;23.97;22.47;;;;;;;;;;5074135;28;20444;-77
2021/04/26 12:57:32;;;;;;;23.03;21.73;;;;;;;;;;5074227;28;20787;-77
2021/04/26 12:59:59;;;;;;;24.67;23.17;;;;;;;;;;5073911;28;20427;-78
2021/04/26 13:02:28;;;;;;;23.20;21.90;;;;;;;;;;5074030;28;20441;-77
2021/04/26 13:04:56;;;;;;;24.23;22.63;;;;;;;;;;5073596;28;20499;-78
2021/04/26 13:07:23;;;;;;;25.00;23.50;;;;;;;;;;5073167;28;20445;-77
2021/04/26 13:10:00;;;;;;;22.60;21.20;;;;;;;;;;5073924;28;20572;-78
2021/04/26 13:12:27;;;;;;;24.40;23.00;;;;;;;;;;5074237;28;20405;-84
2021/04/26 13:14:55;;;;;;;23.83;22.47;;;;;;;;;;5074027;28;20450;-77
2021/04/26 13:17:33;;;;;;;23.57;22.33;;;;;;;;;;5073743;28;20467;-76
2021/04/26 13:20:18;;;;;;;23.07;21.77;;;;;;;;;;5073132;28;20421;-82
2021/04/26 13:22:45;;;;;;;22.97;21.77;;;;;;;;;;5072824;28;20467;-79
2021/04/26 13:25:12;;;;;;;23.90;22.50;;;;;;;;;;5073359;28;20565;-77
2021/04/26 13:27:44;;;;;;;25.00;23.10;;;;;;;;;;5073840;28;20430;-78
2021/04/26 13:30:12;;;;;;;24.67;23.27;;;;;;;;;;5073858;28;20445;-77
2021/04/26 13:32:40;;;;;;;23.87;22.47;;;;;;;;;;5073642;28;20408;-77
2021/04/26 13:35:07;;;;;;;23.53;22.00;;;;;;;;;;5073520;28;20483;-77
2021/04/26 13:37:35;;;;;;;23.67;22.03;;;;;;;;;;5073695;28;20824;-77
2021/04/26 13:40:02;;;;;;;24.00;22.70;;;;;;;;;;5073424;28;20424;-77
2021/04/26 13:42:29;;;;;;;23.50;22.20;;;;;;;;;;5073956;28;20794;-77
2021/04/26 13:44:56;;;;;;;24.20;22.80;;;;;;;;;;5073592;28;20442;-78
2021/04/26 13:47:23;;;;;;;23.93;22.63;;;;;;;;;;5073721;28;20412;-77
2021/04/26 13:49:51;;;;;;;23.37;22.07;;;;;;;;;;5073629;28;20463;-77
2021/04/26 13:52:17;;;;;;;24.47;23.07;;;;;;;;;;5072099;28;20445;-76
2021/04/26 13:54:44;;;;;;;25.10;23.17;;;;;;;;;;5072258;28;20523;-77
2021/04/26 13:57:11;;;;;;;25.70;23.57;;;;;;;;;;5073697;28;20416;-77
2021/04/26 13:59:38;;;;;;;24.33;23.03;;;;;;;;;;5073288;28;20924;-77
2021/04/26 14:02:05;;;;;;;23.07;21.57;;;;;;;;;;5073193;28;20424;-77
2021/04/26 14:04:34;;;;;;;23.30;21.90;;;;;;;;;;5072235;28;20420;-77
2021/04/26 14:07:01;;;;;;;23.73;22.13;;;;;;;;;;5073181;28;20839;-77
2021/04/26 14:09:28;;;;;;;24.33;22.93;;;;;;;;;;5073089;28;21075;-78
2021/04/26 14:11:55;;;;;;;23.70;22.20;;;;;;;;;;5073138;28;20413;-77
2021/04/26 14:14:22;;;;;;;23.13;21.70;;;;;;;;;;5073366;28;20413;-78
2021/04/26 14:16:49;;;;;;;22.40;21.20;;;;;;;;;;5073122;28;20458;-77
2021/04/26 14:19:16;;;;;;;23.53;22.17;;;;;;;;;;5075930;28;20453;-78
2021/04/26 14:21:44;;;;;;;23.00;21.70;;;;;;;;;;5076860;28;20536;-77
2021/04/26 14:24:11;;;;;;;23.47;21.90;;;;;;;;;;5076686;28;20492;-77